sensor_id;sensor_type;location;lat;lon;timestamp;pressure;altitude;pressure_sealevel;temperature;humidity
36932;BME280;22847;42.654;23.370;2023-05-01T00:00:30;94634.06;;;14.78;61.14
36932;BME280;22847;42.654;23.370;2023-05-01T00:02:56;94610.38;;;14.55;60.92
36932;BME280;22847;42.654;23.370;2023-05-01T00:05:21;94651.50;;;14.71;61.30
36932;BME280;22847;42.654;23.370;2023-05-01T00:07:46;94651.97;;;14.74;61.12
36932;BME280;22847;42.654;23.370;2023-05-01T00:10:12;94655.25;;;14.68;61.68
36932;BME280;22847;42.654;23.370;2023-05-01T00:12:37;94586.38;;;14.36;61.60
36932;BME280;22847;42.654;23.370;2023-05-01T00:15:03;94503.28;;;13.73;62.25
36932;BME280;22847;42.654;23.370;2023-05-01T00:17:29;94645.94;;;14.66;61.57
36932;BME280;22847;42.654;23.370;2023-05-01T00:19:55;94621.06;;;14.54;61.21
36932;BME280;22847;42.654;23.370;2023-05-01T00:22:20;94652.31;;;14.71;61.35
36932;BME280;22847;42.654;23.370;2023-05-01T00:24:45;94491.81;;;13.66;61.92
36932;BME280;22847;42.654;23.370;2023-05-01T00:27:13;94622.53;;;14.48;61.71
36932;BME280;22847;42.654;23.370;2023-05-01T00:29:39;94650.88;;;14.61;61.52
36932;BME280;22847;42.654;23.370;2023-05-01T00:32:04;94626.03;;;14.41;62.02
36932;BME280;22847;42.654;23.370;2023-05-01T00:34:30;94659.28;;;14.48;62.55
36932;BME280;22847;42.654;23.370;2023-05-01T00:36:55;94688.81;;;14.10;63.28
36932;BME280;22847;42.654;23.370;2023-05-01T00:39:21;94620.50;;;13.87;63.80
36932;BME280;22847;42.654;23.370;2023-05-01T00:41:47;94504.63;;;13.28;63.09
36932;BME280;22847;42.654;23.370;2023-05-01T00:44:12;94474.88;;;13.21;62.57
36932;BME280;22847;42.654;23.370;2023-05-01T00:46:37;94660.94;;;14.25;62.95
36932;BME280;22847;42.654;23.370;2023-05-01T00:49:03;94674.03;;;14.41;62.50
36932;BME280;22847;42.654;23.370;2023-05-01T00:51:28;94535.91;;;13.54;62.85
36932;BME280;22847;42.654;23.370;2023-05-01T00:53:57;94668.84;;;13.76;64.40
36932;BME280;22847;42.654;23.370;2023-05-01T00:56:23;94539.22;;;12.66;66.17
36932;BME280;22847;42.654;23.370;2023-05-01T00:58:50;94649.50;;;13.37;65.81
36932;BME280;22847;42.654;23.370;2023-05-01T01:01:19;94647.56;;;13.71;64.96
36932;BME280;22847;42.654;23.370;2023-05-01T01:03:45;94677.88;;;13.90;65.08
36932;BME280;22847;42.654;23.370;2023-05-01T01:06:24;94653.94;;;13.85;64.77
36932;BME280;22847;42.654;23.370;2023-05-01T01:09:16;94682.59;;;14.03;64.64
36932;BME280;22847;42.654;23.370;2023-05-01T01:11:57;94530.50;;;13.15;63.53
36932;BME280;22847;42.654;23.370;2023-05-01T01:14:38;94673.25;;;13.84;64.15
36932;BME280;22847;42.654;23.370;2023-05-01T01:17:20;94680.00;;;13.95;63.83
36932;BME280;22847;42.654;23.370;2023-05-01T01:22:19;94550.66;;;13.15;63.99
36932;BME280;22847;42.654;23.370;2023-05-01T01:35:26;94672.47;;;13.59;66.06
36932;BME280;22847;42.654;23.370;2023-05-01T01:38:09;94693.75;;;13.80;65.37
36932;BME280;22847;42.654;23.370;2023-05-01T01:40:48;94699.81;;;13.73;65.04
36932;BME280;22847;42.654;23.370;2023-05-01T01:43:17;94692.09;;;13.79;65.07
36932;BME280;22847;42.654;23.370;2023-05-01T01:45:50;94665.22;;;13.61;65.28
36932;BME280;22847;42.654;23.370;2023-05-01T01:48:21;94651.84;;;13.06;68.38
36932;BME280;22847;42.654;23.370;2023-05-01T01:50:49;94502.00;;;12.14;69.56
36932;BME280;22847;42.654;23.370;2023-05-01T01:53:17;94694.53;;;13.49;67.89
36932;BME280;22847;42.654;23.370;2023-05-01T01:55:44;94685.50;;;13.43;68.16
36932;BME280;22847;42.654;23.370;2023-05-01T01:58:12;94642.78;;;13.26;68.49
36932;BME280;22847;42.654;23.370;2023-05-01T02:00:43;94668.69;;;13.54;68.04
36932;BME280;22847;42.654;23.370;2023-05-01T02:03:09;94676.00;;;13.42;67.85
36932;BME280;22847;42.654;23.370;2023-05-01T02:05:38;94651.63;;;13.33;67.23
36932;BME280;22847;42.654;23.370;2023-05-01T02:08:05;94641.63;;;13.29;66.65
36932;BME280;22847;42.654;23.370;2023-05-01T02:10:33;94655.38;;;13.39;65.84
36932;BME280;22847;42.654;23.370;2023-05-01T02:13:01;94667.66;;;13.22;66.24
36932;BME280;22847;42.654;23.370;2023-05-01T02:15:28;94648.16;;;13.25;66.30
36932;BME280;22847;42.654;23.370;2023-05-01T02:17:54;94685.84;;;13.40;66.79
36932;BME280;22847;42.654;23.370;2023-05-01T02:20:20;94662.41;;;13.14;67.63
36932;BME280;22847;42.654;23.370;2023-05-01T02:22:47;94668.97;;;13.26;67.10
36932;BME280;22847;42.654;23.370;2023-05-01T02:25:14;94668.13;;;13.18;67.15
36932;BME280;22847;42.654;23.370;2023-05-01T02:27:52;94514.25;;;12.13;67.00
36932;BME280;22847;42.654;23.370;2023-05-01T02:30:20;94481.63;;;11.57;67.60
36932;BME280;22847;42.654;23.370;2023-05-01T02:32:45;94693.63;;;13.16;66.75
36932;BME280;22847;42.654;23.370;2023-05-01T02:35:10;94693.63;;;13.16;66.40
36932;BME280;22847;42.654;23.370;2023-05-01T02:37:37;94696.13;;;13.25;66.29
36932;BME280;22847;42.654;23.370;2023-05-01T02:40:03;94665.66;;;13.16;66.39
36932;BME280;22847;42.654;23.370;2023-05-01T02:42:29;94499.34;;;12.05;65.98
36932;BME280;22847;42.654;23.370;2023-05-01T02:44:59;94686.44;;;13.18;66.40
36932;BME280;22847;42.654;23.370;2023-05-01T02:47:26;94675.88;;;13.02;66.67
36932;BME280;22847;42.654;23.370;2023-05-01T02:49:53;94671.47;;;13.02;66.72
36932;BME280;22847;42.654;23.370;2023-05-01T02:52:20;94517.31;;;12.00;67.09
36932;BME280;22847;42.654;23.370;2023-05-01T02:54:47;94678.34;;;13.03;67.17
36932;BME280;22847;42.654;23.370;2023-05-01T02:57:15;94688.97;;;13.02;67.13
36932;BME280;22847;42.654;23.370;2023-05-01T02:59:41;94674.19;;;12.84;67.55
36932;BME280;22847;42.654;23.370;2023-05-01T03:02:06;94527.00;;;11.82;67.31
36932;BME280;22847;42.654;23.370;2023-05-01T03:04:32;94688.06;;;12.69;67.43
36932;BME280;22847;42.654;23.370;2023-05-01T03:06:57;94706.53;;;12.75;67.06
36932;BME280;22847;42.654;23.370;2023-05-01T03:09:22;94716.06;;;12.84;66.77
36932;BME280;22847;42.654;23.370;2023-05-01T03:11:48;94707.88;;;12.79;66.86
36932;BME280;22847;42.654;23.370;2023-05-01T03:14:13;94696.25;;;12.74;66.76
36932;BME280;22847;42.654;23.370;2023-05-01T03:16:39;94556.72;;;11.81;67.29
36932;BME280;22847;42.654;23.370;2023-05-01T03:19:05;94517.13;;;11.42;69.45
36932;BME280;22847;42.654;23.370;2023-05-01T03:21:31;94706.66;;;11.88;72.95
36932;BME280;22847;42.654;23.370;2023-05-01T03:23:57;94519.81;;;10.89;72.42
36932;BME280;22847;42.654;23.370;2023-05-01T03:26:22;94710.38;;;12.29;71.32
36932;BME280;22847;42.654;23.370;2023-05-01T03:28:48;94706.38;;;12.43;70.92
36932;BME280;22847;42.654;23.370;2023-05-01T03:31:13;94626.78;;;11.86;70.11
36932;BME280;22847;42.654;23.370;2023-05-01T03:33:39;94718.78;;;12.41;69.81
36932;BME280;22847;42.654;23.370;2023-05-01T03:36:05;94580.03;;;11.13;71.67
36932;BME280;22847;42.654;23.370;2023-05-01T03:38:31;94541.41;;;10.99;70.78
36932;BME280;22847;42.654;23.370;2023-05-01T03:40:57;94681.88;;;11.92;70.24
36932;BME280;22847;42.654;23.370;2023-05-01T03:43:23;94413.59;;;10.38;68.20
36932;BME280;22847;42.654;23.370;2023-05-01T03:45:50;94571.28;;;11.23;68.29
36932;BME280;22847;42.654;23.370;2023-05-01T03:48:16;94673.78;;;12.03;68.15
36932;BME280;22847;42.654;23.370;2023-05-01T03:50:42;94737.06;;;12.33;68.37
36932;BME280;22847;42.654;23.370;2023-05-01T03:53:07;94559.75;;;11.25;67.71
36932;BME280;22847;42.654;23.370;2023-05-01T03:55:33;94542.06;;;10.48;69.83
36932;BME280;22847;42.654;23.370;2023-05-01T03:57:58;94744.78;;;11.99;68.81
36932;BME280;22847;42.654;23.370;2023-05-01T04:00:24;94748.25;;;12.25;67.73
36932;BME280;22847;42.654;23.370;2023-05-01T04:02:50;94734.66;;;12.22;67.30
36932;BME280;22847;42.654;23.370;2023-05-01T04:05:16;94596.97;;;11.53;66.90
36932;BME280;22847;42.654;23.370;2023-05-01T04:07:42;94733.50;;;12.42;66.80
36932;BME280;22847;42.654;23.370;2023-05-01T04:10:08;94752.22;;;12.55;66.74
36932;BME280;22847;42.654;23.370;2023-05-01T04:12:34;94734.47;;;12.41;66.93
36932;BME280;22847;42.654;23.370;2023-05-01T04:14:59;94567.28;;;11.54;66.51
36932;BME280;22847;42.654;23.370;2023-05-01T04:17:25;94666.84;;;12.46;65.85
36932;BME280;22847;42.654;23.370;2023-05-01T04:19:51;94719.63;;;14.24;62.08
36932;BME280;22847;42.654;23.370;2023-05-01T04:22:16;94680.44;;;16.38;55.28
36932;BME280;22847;42.654;23.370;2023-05-01T04:24:42;94740.31;;;18.68;49.10
36932;BME280;22847;42.654;23.370;2023-05-01T04:27:07;94638.06;;;19.50;45.04
36932;BME280;22847;42.654;23.370;2023-05-01T04:29:33;94735.34;;;21.01;42.62
36932;BME280;22847;42.654;23.370;2023-05-01T04:31:58;94633.22;;;20.79;41.51
36932;BME280;22847;42.654;23.370;2023-05-01T04:34:23;94728.28;;;21.53;40.86
36932;BME280;22847;42.654;23.370;2023-05-01T04:36:53;94706.75;;;21.03;40.82
36932;BME280;22847;42.654;23.370;2023-05-01T04:39:19;94750.44;;;21.14;40.95
36932;BME280;22847;42.654;23.370;2023-05-01T04:41:44;94738.22;;;20.93;41.80
36932;BME280;22847;42.654;23.370;2023-05-01T04:44:29;94754.75;;;20.75;42.33
36932;BME280;22847;42.654;23.370;2023-05-01T04:46:54;94745.78;;;20.70;42.81
36932;BME280;22847;42.654;23.370;2023-05-01T04:49:21;94744.34;;;20.61;43.02
36932;BME280;22847;42.654;23.370;2023-05-01T04:51:46;94740.28;;;20.52;42.79
36932;BME280;22847;42.654;23.370;2023-05-01T04:54:11;94757.38;;;20.49;43.22
36932;BME280;22847;42.654;23.370;2023-05-01T04:56:37;94596.97;;;19.48;43.25
36932;BME280;22847;42.654;23.370;2023-05-01T04:59:02;94742.69;;;20.33;43.65
36932;BME280;22847;42.654;23.370;2023-05-01T05:01:28;94637.91;;;19.58;43.64
36932;BME280;22847;42.654;23.370;2023-05-01T05:03:53;94613.38;;;19.30;44.50
36932;BME280;22847;42.654;23.370;2023-05-01T05:06:19;94632.69;;;19.24;44.88
36932;BME280;22847;42.654;23.370;2023-05-01T05:08:45;94758.63;;;19.79;45.59
36932;BME280;22847;42.654;23.370;2023-05-01T05:11:10;94756.50;;;19.55;46.14
36932;BME280;22847;42.654;23.370;2023-05-01T05:13:36;94731.38;;;19.38;46.37
36932;BME280;22847;42.654;23.370;2023-05-01T05:16:02;94748.41;;;19.63;46.43
36932;BME280;22847;42.654;23.370;2023-05-01T05:18:28;94774.88;;;19.70;46.30
36932;BME280;22847;42.654;23.370;2023-05-01T05:20:53;94776.25;;;19.59;46.57
36932;BME280;22847;42.654;23.370;2023-05-01T05:23:19;94687.38;;;19.17;46.81
36932;BME280;22847;42.654;23.370;2023-05-01T05:25:45;94737.47;;;19.38;46.98
36932;BME280;22847;42.654;23.370;2023-05-01T05:28:10;94771.72;;;19.46;47.46
36932;BME280;22847;42.654;23.370;2023-05-01T05:30:36;94702.75;;;19.07;47.49
36932;BME280;22847;42.654;23.370;2023-05-01T05:33:01;94784.19;;;19.52;48.09
36932;BME280;22847;42.654;23.370;2023-05-01T05:35:27;94673.38;;;18.82;48.39
36932;BME280;22847;42.654;23.370;2023-05-01T05:37:53;94777.72;;;19.62;48.21
36932;BME280;22847;42.654;23.370;2023-05-01T05:40:18;94829.63;;;19.69;48.07
36932;BME280;22847;42.654;23.370;2023-05-01T05:42:44;94787.22;;;19.49;48.32
36932;BME280;22847;42.654;23.370;2023-05-01T05:45:09;94674.38;;;18.04;50.67
36932;BME280;22847;42.654;23.370;2023-05-01T05:47:35;94775.69;;;18.73;50.51
36932;BME280;22847;42.654;23.370;2023-05-01T05:50:00;94791.22;;;19.11;50.21
36932;BME280;22847;42.654;23.370;2023-05-01T05:52:26;94792.28;;;19.44;49.47
36932;BME280;22847;42.654;23.370;2023-05-01T05:54:51;94762.28;;;19.72;48.46
36932;BME280;22847;42.654;23.370;2023-05-01T05:57:16;94788.72;;;20.26;47.50
36932;BME280;22847;42.654;23.370;2023-05-01T05:59:42;94782.25;;;20.55;46.82
36932;BME280;22847;42.654;23.370;2023-05-01T06:02:08;94787.56;;;20.74;46.18
36932;BME280;22847;42.654;23.370;2023-05-01T06:04:34;94684.59;;;20.19;46.01
36932;BME280;22847;42.654;23.370;2023-05-01T06:06:59;94783.06;;;20.88;46.13
36932;BME280;22847;42.654;23.370;2023-05-01T06:09:25;94801.81;;;21.06;45.97
36932;BME280;22847;42.654;23.370;2023-05-01T06:11:50;94794.06;;;20.85;46.06
36932;BME280;22847;42.654;23.370;2023-05-01T06:14:16;94756.16;;;20.45;46.29
36932;BME280;22847;42.654;23.370;2023-05-01T06:16:41;94808.75;;;20.61;46.75
36932;BME280;22847;42.654;23.370;2023-05-01T06:19:07;94803.66;;;20.73;47.09
36932;BME280;22847;42.654;23.370;2023-05-01T06:21:34;94779.38;;;20.76;46.67
36932;BME280;22847;42.654;23.370;2023-05-01T06:24:00;94746.75;;;20.29;46.83
36932;BME280;22847;42.654;23.370;2023-05-01T06:26:26;94803.06;;;20.58;47.29
36932;BME280;22847;42.654;23.370;2023-05-01T06:28:52;94760.19;;;20.28;47.94
36932;BME280;22847;42.654;23.370;2023-05-01T06:31:18;94818.13;;;20.64;47.71
36932;BME280;22847;42.654;23.370;2023-05-01T06:33:44;94843.03;;;20.89;46.89
36932;BME280;22847;42.654;23.370;2023-05-01T06:36:09;94822.22;;;20.66;47.25
36932;BME280;22847;42.654;23.370;2023-05-01T06:38:35;94804.66;;;20.72;47.46
36932;BME280;22847;42.654;23.370;2023-05-01T06:41:00;94801.78;;;20.40;47.20
36932;BME280;22847;42.654;23.370;2023-05-01T06:43:25;94799.09;;;20.21;48.70
36932;BME280;22847;42.654;23.370;2023-05-01T06:45:54;94770.16;;;20.19;48.72
36932;BME280;22847;42.654;23.370;2023-05-01T06:48:20;94648.31;;;19.67;48.43
36932;BME280;22847;42.654;23.370;2023-05-01T06:50:45;94755.75;;;20.68;48.07
36932;BME280;22847;42.654;23.370;2023-05-01T06:53:11;94799.59;;;21.16;46.62
36932;BME280;22847;42.654;23.370;2023-05-01T06:55:36;94810.75;;;21.45;46.24
36932;BME280;22847;42.654;23.370;2023-05-01T06:58:02;94815.41;;;21.69;45.19
36932;BME280;22847;42.654;23.370;2023-05-01T07:00:28;94767.81;;;21.67;45.61
36932;BME280;22847;42.654;23.370;2023-05-01T07:02:53;94796.47;;;22.10;44.42
36932;BME280;22847;42.654;23.370;2023-05-01T07:05:19;94784.31;;;21.76;44.24
36932;BME280;22847;42.654;23.370;2023-05-01T07:07:44;94811.38;;;21.47;45.16
36932;BME280;22847;42.654;23.370;2023-05-01T07:10:10;94805.72;;;21.23;45.60
36932;BME280;22847;42.654;23.370;2023-05-01T07:12:35;94804.09;;;21.16;46.03
36932;BME280;22847;42.654;23.370;2023-05-01T07:15:01;94818.56;;;21.33;46.21
36932;BME280;22847;42.654;23.370;2023-05-01T07:17:28;94770.22;;;21.11;46.31
36932;BME280;22847;42.654;23.370;2023-05-01T07:19:53;94808.75;;;21.33;46.14
36932;BME280;22847;42.654;23.370;2023-05-01T07:22:18;94805.06;;;21.41;46.49
36932;BME280;22847;42.654;23.370;2023-05-01T07:24:44;94813.59;;;21.56;45.17
36932;BME280;22847;42.654;23.370;2023-05-01T07:27:09;94670.50;;;20.97;45.67
36932;BME280;22847;42.654;23.370;2023-05-01T07:29:37;94689.16;;;21.42;45.77
36932;BME280;22847;42.654;23.370;2023-05-01T07:32:02;94799.38;;;21.89;43.51
36932;BME280;22847;42.654;23.370;2023-05-01T07:34:29;94652.09;;;21.09;44.12
36932;BME280;22847;42.654;23.370;2023-05-01T07:36:55;94820.56;;;22.15;43.23
36932;BME280;22847;42.654;23.370;2023-05-01T07:39:21;94820.22;;;21.98;44.04
36932;BME280;22847;42.654;23.370;2023-05-01T07:41:46;94830.56;;;22.13;44.26
36932;BME280;22847;42.654;23.370;2023-05-01T07:44:12;94765.53;;;21.77;44.63
36932;BME280;22847;42.654;23.370;2023-05-01T07:46:37;94788.22;;;21.73;43.43
36932;BME280;22847;42.654;23.370;2023-05-01T07:49:03;94810.03;;;21.82;44.80
36932;BME280;22847;42.654;23.370;2023-05-01T07:51:29;94828.59;;;21.95;45.10
36932;BME280;22847;42.654;23.370;2023-05-01T07:53:55;94583.56;;;20.48;44.31
36932;BME280;22847;42.654;23.370;2023-05-01T07:56:20;94813.88;;;22.06;44.04
36932;BME280;22847;42.654;23.370;2023-05-01T07:58:45;94780.03;;;21.81;43.98
36932;BME280;22847;42.654;23.370;2023-05-01T08:01:11;94778.78;;;21.97;43.92
36932;BME280;22847;42.654;23.370;2023-05-01T08:03:36;94812.09;;;22.31;42.83
36932;BME280;22847;42.654;23.370;2023-05-01T08:06:02;94796.16;;;22.62;42.55
36932;BME280;22847;42.654;23.370;2023-05-01T08:08:27;94668.88;;;21.92;42.44
36932;BME280;22847;42.654;23.370;2023-05-01T08:10:53;94802.31;;;22.56;41.72
36932;BME280;22847;42.654;23.370;2023-05-01T08:13:18;94797.56;;;22.34;41.75
36932;BME280;22847;42.654;23.370;2023-05-01T08:15:47;94813.19;;;22.55;42.97
36932;BME280;22847;42.654;23.370;2023-05-01T08:18:13;94823.66;;;22.81;42.82
36932;BME280;22847;42.654;23.370;2023-05-01T08:20:44;94712.13;;;22.37;41.73
36932;BME280;22847;42.654;23.370;2023-05-01T08:23:10;94796.34;;;23.17;40.83
36932;BME280;22847;42.654;23.370;2023-05-01T08:25:36;94678.75;;;22.65;40.88
36932;BME280;22847;42.654;23.370;2023-05-01T08:28:01;94805.91;;;23.43;39.28
36932;BME280;22847;42.654;23.370;2023-05-01T08:30:27;94809.69;;;23.35;40.00
36932;BME280;22847;42.654;23.370;2023-05-01T08:32:52;94792.97;;;23.28;40.35
36932;BME280;22847;42.654;23.370;2023-05-01T08:35:18;94750.44;;;21.78;39.46
36932;BME280;22847;42.654;23.370;2023-05-01T08:37:44;94801.34;;;21.49;40.06
36932;BME280;22847;42.654;23.370;2023-05-01T08:40:10;94681.63;;;21.39;38.15
36932;BME280;22847;42.654;23.370;2023-05-01T08:42:36;94673.78;;;20.92;40.55
36932;BME280;22847;42.654;23.370;2023-05-01T08:45:08;94672.06;;;21.24;41.43
36932;BME280;22847;42.654;23.370;2023-05-01T08:47:39;94725.47;;;21.86;40.00
36932;BME280;22847;42.654;23.370;2023-05-01T08:50:08;94803.91;;;22.33;40.61
36932;BME280;22847;42.654;23.370;2023-05-01T08:52:39;94802.25;;;22.69;39.74
36932;BME280;22847;42.654;23.370;2023-05-01T08:55:08;94770.69;;;22.80;40.04
36932;BME280;22847;42.654;23.370;2023-05-01T08:57:36;94703.47;;;22.16;38.65
36932;BME280;22847;42.654;23.370;2023-05-01T09:00:02;94800.59;;;22.75;37.57
36932;BME280;22847;42.654;23.370;2023-05-01T09:02:30;94797.88;;;22.12;38.94
36932;BME280;22847;42.654;23.370;2023-05-01T09:05:00;94795.13;;;22.32;37.99
36932;BME280;22847;42.654;23.370;2023-05-01T09:07:26;94794.09;;;22.33;36.80
36932;BME280;22847;42.654;23.370;2023-05-01T09:09:51;94798.78;;;22.69;37.09
36932;BME280;22847;42.654;23.370;2023-05-01T09:12:26;94790.75;;;22.44;38.76
36932;BME280;22847;42.654;23.370;2023-05-01T09:14:53;94702.03;;;22.45;38.16
36932;BME280;22847;42.654;23.370;2023-05-01T09:17:22;94775.97;;;22.55;37.96
36932;BME280;22847;42.654;23.370;2023-05-01T09:19:49;94797.50;;;23.03;37.10
36932;BME280;22847;42.654;23.370;2023-05-01T09:22:16;94803.28;;;22.68;36.62
36932;BME280;22847;42.654;23.370;2023-05-01T09:24:43;94710.59;;;22.47;36.23
36932;BME280;22847;42.654;23.370;2023-05-01T09:27:08;94790.84;;;22.62;35.84
36932;BME280;22847;42.654;23.370;2023-05-01T09:29:42;94797.00;;;23.12;35.78
36932;BME280;22847;42.654;23.370;2023-05-01T09:32:19;94812.94;;;23.62;36.66
36932;BME280;22847;42.654;23.370;2023-05-01T09:34:46;94657.53;;;22.84;36.70
36932;BME280;22847;42.654;23.370;2023-05-01T09:37:23;94799.28;;;22.84;41.19
36932;BME280;22847;42.654;23.370;2023-05-01T09:40:09;94747.78;;;22.22;41.96
36932;BME280;22847;42.654;23.370;2023-05-01T09:42:40;94480.38;;;21.11;39.70
36932;BME280;22847;42.654;23.370;2023-05-01T09:45:11;94807.66;;;23.55;39.46
36932;BME280;22847;42.654;23.370;2023-05-01T09:47:38;94790.28;;;23.53;39.31
36932;BME280;22847;42.654;23.370;2023-05-01T09:50:04;94787.63;;;23.28;39.10
36932;BME280;22847;42.654;23.370;2023-05-01T09:52:30;94789.78;;;23.20;39.17
36932;BME280;22847;42.654;23.370;2023-05-01T09:55:16;94787.59;;;23.10;39.04
36932;BME280;22847;42.654;23.370;2023-05-01T09:57:42;94781.84;;;21.88;41.79
36932;BME280;22847;42.654;23.370;2023-05-01T10:00:08;94798.69;;;22.19;40.62
36932;BME280;22847;42.654;23.370;2023-05-01T10:02:35;94766.00;;;22.19;41.17
36932;BME280;22847;42.654;23.370;2023-05-01T10:05:01;94774.59;;;22.46;41.18
36932;BME280;22847;42.654;23.370;2023-05-01T10:07:27;94655.53;;;22.05;38.24
36932;BME280;22847;42.654;23.370;2023-05-01T10:09:53;94624.34;;;21.94;40.02
36932;BME280;22847;42.654;23.370;2023-05-01T10:12:24;94729.91;;;22.36;39.20
36932;BME280;22847;42.654;23.370;2023-05-01T10:14:54;94638.13;;;21.77;37.57
36932;BME280;22847;42.654;23.370;2023-05-01T10:17:21;94682.53;;;22.02;38.09
36932;BME280;22847;42.654;23.370;2023-05-01T10:19:47;94631.66;;;22.05;37.85
36932;BME280;22847;42.654;23.370;2023-05-01T10:22:13;94783.28;;;21.97;38.64
36932;BME280;22847;42.654;23.370;2023-05-01T10:24:39;94766.63;;;22.46;39.67
36932;BME280;22847;42.654;23.370;2023-05-01T10:27:06;94650.88;;;22.00;38.53
36932;BME280;22847;42.654;23.370;2023-05-01T10:29:36;94759.06;;;22.11;37.48
36932;BME280;22847;42.654;23.370;2023-05-01T10:32:03;94765.69;;;21.96;38.30
36932;BME280;22847;42.654;23.370;2023-05-01T10:34:29;94681.75;;;21.57;38.71
36932;BME280;22847;42.654;23.370;2023-05-01T10:37:08;94723.84;;;22.54;37.87
36932;BME280;22847;42.654;23.370;2023-05-01T10:39:35;94756.88;;;22.96;37.08
36932;BME280;22847;42.654;23.370;2023-05-01T10:42:08;94773.38;;;23.23;36.71
36932;BME280;22847;42.654;23.370;2023-05-01T10:44:40;94791.16;;;21.39;38.56
36932;BME280;22847;42.654;23.370;2023-05-01T10:55:39;94776.63;;;22.50;38.37
36932;BME280;22847;42.654;23.370;2023-05-01T10:58:07;94756.63;;;21.65;39.86
36932;BME280;22847;42.654;23.370;2023-05-01T11:00:33;94793.69;;;21.85;41.19
36932;BME280;22847;42.654;23.370;2023-05-01T11:08:36;94622.06;;;21.28;42.83
36932;BME280;22847;42.654;23.370;2023-05-01T11:14:02;94738.56;;;21.29;40.60
36932;BME280;22847;42.654;23.370;2023-05-01T11:19:42;94766.66;;;21.50;44.32
36932;BME280;22847;42.654;23.370;2023-05-01T11:21:55;94766.72;;;21.11;44.44
36932;BME280;22847;42.654;23.370;2023-05-01T11:24:30;94746.97;;;21.20;42.28
36932;BME280;22847;42.654;23.370;2023-05-01T11:26:56;94751.31;;;21.65;41.19
36932;BME280;22847;42.654;23.370;2023-05-01T11:29:29;94765.53;;;20.67;40.44
36932;BME280;22847;42.654;23.370;2023-05-01T11:31:55;94791.06;;;19.94;41.69
36932;BME280;22847;42.654;23.370;2023-05-01T11:34:21;94761.06;;;20.35;40.97
36932;BME280;22847;42.654;23.370;2023-05-01T11:36:51;94776.13;;;20.47;40.87
36932;BME280;22847;42.654;23.370;2023-05-01T11:39:18;94776.13;;;20.54;41.29
36932;BME280;22847;42.654;23.370;2023-05-01T11:41:44;94750.84;;;20.98;41.03
36932;BME280;22847;42.654;23.370;2023-05-01T11:44:15;94773.47;;;21.33;39.47
36932;BME280;22847;42.654;23.370;2023-05-01T11:46:40;94775.94;;;20.82;39.61
36932;BME280;22847;42.654;23.370;2023-05-01T11:49:06;94628.78;;;19.81;40.77
36932;BME280;22847;42.654;23.370;2023-05-01T11:51:32;94769.38;;;21.11;39.09
36932;BME280;22847;42.654;23.370;2023-05-01T11:54:09;94609.22;;;19.95;40.19
36932;BME280;22847;42.654;23.370;2023-05-01T11:56:36;94757.75;;;21.12;38.91
36932;BME280;22847;42.654;23.370;2023-05-01T11:59:10;94781.84;;;20.64;38.98
36932;BME280;22847;42.654;23.370;2023-05-01T12:01:40;94789.00;;;20.57;38.80
36932;BME280;22847;42.654;23.370;2023-05-01T12:04:07;94776.31;;;20.46;39.76
36932;BME280;22847;42.654;23.370;2023-05-01T12:06:42;94745.56;;;20.52;39.14
36932;BME280;22847;42.654;23.370;2023-05-01T12:09:21;94716.00;;;20.68;37.94
36932;BME280;22847;42.654;23.370;2023-05-01T12:11:49;94764.91;;;20.59;38.32
36932;BME280;22847;42.654;23.370;2023-05-01T12:14:16;94753.69;;;20.76;37.35
36932;BME280;22847;42.654;23.370;2023-05-01T12:16:42;94749.44;;;20.56;38.53
36932;BME280;22847;42.654;23.370;2023-05-01T12:19:09;94791.44;;;20.65;37.41
36932;BME280;22847;42.654;23.370;2023-05-01T12:21:36;94779.19;;;20.64;37.55
36932;BME280;22847;42.654;23.370;2023-05-01T12:24:12;94784.50;;;20.71;38.64
36932;BME280;22847;42.654;23.370;2023-05-01T12:26:40;94627.31;;;19.52;37.08
36932;BME280;22847;42.654;23.370;2023-05-01T12:29:06;94782.88;;;20.70;37.88
36932;BME280;22847;42.654;23.370;2023-05-01T12:31:33;94627.31;;;19.65;37.51
36932;BME280;22847;42.654;23.370;2023-05-01T12:36:28;94787.41;;;20.09;36.74
36932;BME280;22847;42.654;23.370;2023-05-01T12:39:04;94758.63;;;19.79;36.16
36932;BME280;22847;42.654;23.370;2023-05-01T12:41:38;94800.84;;;20.00;37.40
36932;BME280;22847;42.654;23.370;2023-05-01T12:44:26;94828.19;;;20.14;37.96
36932;BME280;22847;42.654;23.370;2023-05-01T12:47:05;94784.13;;;19.93;35.23
36932;BME280;22847;42.654;23.370;2023-05-01T12:49:32;94746.41;;;19.72;35.19
36932;BME280;22847;42.654;23.370;2023-05-01T12:52:00;94778.22;;;19.91;38.91
36932;BME280;22847;42.654;23.370;2023-05-01T12:54:30;94653.91;;;18.96;37.40
36932;BME280;22847;42.654;23.370;2023-05-01T12:57:11;94634.59;;;19.50;40.15
36932;BME280;22847;42.654;23.370;2023-05-01T12:59:40;94804.88;;;20.44;37.87
36932;BME280;22847;42.654;23.370;2023-05-01T13:02:07;94809.88;;;20.13;38.26
36932;BME280;22847;42.654;23.370;2023-05-01T13:04:35;94776.25;;;20.26;38.66
36932;BME280;22847;42.654;23.370;2023-05-01T13:07:01;94707.91;;;19.63;38.81
36932;BME280;22847;42.654;23.370;2023-05-01T13:09:34;94800.09;;;20.20;37.88
36932;BME280;22847;42.654;23.370;2023-05-01T13:12:02;94770.09;;;19.99;38.95
36932;BME280;22847;42.654;23.370;2023-05-01T13:14:35;94768.00;;;19.41;40.05
36932;BME280;22847;42.654;23.370;2023-05-01T13:17:02;94783.22;;;19.67;40.26
36932;BME280;22847;42.654;23.370;2023-05-01T13:19:28;94624.06;;;18.61;42.56
36932;BME280;22847;42.654;23.370;2023-05-01T13:21:57;94759.63;;;19.72;43.65
36932;BME280;22847;42.654;23.370;2023-05-01T13:24:42;94797.34;;;19.11;44.21
36932;BME280;22847;42.654;23.370;2023-05-01T13:27:11;94673.25;;;18.62;44.72